Time;durP1;ratioP1;P1;durP2;ratioP2;P2;SDS_P1;SDS_P2;PMS_P1;PMS_P2;Temp;Humidity;BMP_temperature;BMP_pressure;BME280_temperature;BME280_humidity;BME280_pressure;Samples;Min_cycle;Max_cycle;Signal;HPM_P1;HPM_P2
2022/02/09 00:06:10;;;;;;;5.53;1.70;;;6.60;71.00;;;;;;2290036;55;21453;-71
2022/02/09 00:08:37;;;;;;;4.55;1.77;;;6.60;71.00;;;;;;2312314;55;20966;-70
2022/02/09 00:11:05;;;;;;;5.45;2.03;;;6.60;71.00;;;;;;2286978;55;20952;-72
2022/02/09 00:13:53;;;;;;;7.00;1.87;;;6.50;71.10;;;;;;2519104;54;20973;-72
2022/02/09 00:16:57;;;;;;;5.37;2.00;;;6.40;71.20;;;;;;2288555;55;20938;-72
2022/02/09 00:19:34;;;;;;;4.40;1.75;;;6.50;71.50;;;;;;2296902;55;20949;-72
2022/02/09 00:32:08;;;;;;;6.57;1.25;;;6.50;72.10;;;;;;2289228;56;20973;-71
2022/02/09 00:39:06;;;;;;;6.75;1.50;;;6.60;71.70;;;;;;2289046;56;21040;-71
2022/02/09 00:42:33;;;;;;;4.65;1.90;;;6.60;71.60;;;;;;2290066;55;20972;-72
2022/02/09 00:58:47;;;;;;;4.57;1.40;;;6.50;71.40;;;;;;2289378;55;21794;-71
2022/02/09 01:32:56;;;;;;;3.58;1.73;;;6.20;70.90;;;;;;2289662;56;21604;-70
2022/02/09 02:14:36;;;;;;;4.43;1.85;;;6.20;70.80;;;;;;2370763;55;20992;-71
2022/02/09 02:17:32;;;;;;;6.47;2.30;;;5.10;70.00;;;;;;2314995;55;20965;-70
2022/02/09 02:20:11;;;;;;;4.72;1.70;;;5.00;70.00;;;;;;2289906;55;20950;-71
2022/02/09 02:25:45;;;;;;;6.72;2.45;;;4.90;70.20;;;;;;2289271;56;21064;-71
2022/02/09 02:33:32;;;;;;;5.43;2.60;;;4.90;70.30;;;;;;2289545;56;20988;-71
2022/02/09 02:36:29;;;;;;;5.93;2.62;;;4.80;70.30;;;;;;2289693;56;21036;-71
2022/02/09 02:39:16;;;;;;;5.70;2.30;;;4.80;70.50;;;;;;2289548;55;21033;-71
2022/02/09 02:42:49;;;;;;;5.78;2.75;;;4.80;70.60;;;;;;2288996;55;21000;-71
2022/02/09 03:12:35;;;;;;;6.78;1.90;;;4.60;70.70;;;;;;2289155;56;21032;-70
2022/02/09 03:15:27;;;;;;;5.53;2.20;;;4.50;70.40;;;;;;2289070;56;20945;-70
2022/02/09 03:18:15;;;;;;;6.03;1.90;;;4.50;70.50;;;;;;2267727;56;21052;-70
2022/02/09 03:21:08;;;;;;;6.25;2.00;;;4.50;70.60;;;;;;2288873;56;21584;-70
2022/02/09 03:23:49;;;;;;;4.87;2.15;;;4.40;70.70;;;;;;2288831;56;20952;-71
2022/02/09 03:26:43;;;;;;;3.67;1.70;;;4.40;70.80;;;;;;2291260;54;20996;-71
2022/02/09 03:47:46;;;;;;;5.82;1.92;;;4.30;70.70;;;;;;2288537;55;21801;-70
2022/02/09 03:58:46;;;;;;;8.07;3.33;;;4.20;70.40;;;;;;2286787;55;21466;-69
2022/02/09 04:01:12;;;;;;;7.03;2.72;;;4.20;70.50;;;;;;2289447;56;21076;-70
2022/02/09 04:03:38;;;;;;;7.87;3.00;;;4.20;70.60;;;;;;2288140;56;20996;-71
2022/02/09 04:06:06;;;;;;;8.68;3.10;;;4.10;70.50;;;;;;2292038;56;20961;-70
2022/02/09 04:08:40;;;;;;;7.20;3.35;;;4.10;70.50;;;;;;2278246;55;20963;-70
2022/02/09 04:11:12;;;;;;;8.23;3.35;;;4.10;70.60;;;;;;2292672;56;21012;-71
2022/02/09 04:14:49;;;;;;;6.47;2.70;;;4.10;70.60;;;;;;2292519;56;22084;-70
2022/02/09 04:17:37;;;;;;;8.32;3.37;;;4.10;70.60;;;;;;2288913;55;20953;-72
2022/02/09 04:22:21;;;;;;;7.70;3.17;;;4.00;70.50;;;;;;2289073;55;20972;-71
2022/02/09 04:39:00;;;;;;;6.45;2.62;;;3.90;70.50;;;;;;2289017;56;21947;-71
2022/02/09 04:42:02;;;;;;;6.50;2.65;;;3.80;70.40;;;;;;2289762;56;20960;-70
2022/02/09 04:44:42;;;;;;;6.40;2.08;;;3.90;70.50;;;;;;2288055;55;21465;-71
2022/02/09 04:50:06;;;;;;;6.75;1.83;;;3.80;70.30;;;;;;2289481;56;20944;-69
2022/02/09 04:52:56;;;;;;;6.10;1.90;;;3.80;70.30;;;;;;2288842;55;20941;-71
2022/02/09 04:58:50;;;;;;;4.97;1.42;;;3.70;70.30;;;;;;2289585;55;20961;-70
2022/02/09 05:02:02;;;;;;;3.87;1.70;;;3.70;70.30;;;;;;2289199;55;20984;-72
2022/02/09 05:25:12;;;;;;;3.78;1.30;;;3.60;70.40;;;;;;2292457;55;20957;-71
2022/02/09 05:27:52;;;;;;;3.55;1.65;;;3.60;70.30;;;;;;2288924;56;21033;-71
2022/02/09 05:30:19;;;;;;;7.97;2.15;;;3.50;70.20;;;;;;2269388;56;21039;-72
2022/02/09 05:32:47;;;;;;;7.35;2.60;;;3.50;70.30;;;;;;2325335;55;21129;-72
2022/02/09 05:35:15;;;;;;;6.72;2.40;;;3.50;70.30;;;;;;2274966;55;21023;-70
2022/02/09 05:37:42;;;;;;;6.57;2.33;;;3.50;70.50;;;;;;2288871;56;20949;-72
2022/02/09 05:40:10;;;;;;;6.78;2.20;;;3.50;70.50;;;;;;2288628;56;21119;-71
2022/02/09 05:42:36;;;;;;;6.32;2.50;;;3.40;70.40;;;;;;2289208;56;20960;-72
2022/02/09 05:45:07;;;;;;;5.00;2.12;;;3.40;70.40;;;;;;2288999;56;20948;-71
2022/02/09 05:58:05;;;;;;;8.65;2.53;;;3.40;70.50;;;;;;2374251;55;20972;-72
2022/02/09 06:00:31;;;;;;;6.87;2.83;;;3.40;70.40;;;;;;2360168;54;21016;-72
2022/02/09 06:03:01;;;;;;;5.90;2.28;;;3.40;70.50;;;;;;2289023;55;21037;-72
2022/02/09 06:05:27;;;;;;;7.68;2.97;;;3.30;70.50;;;;;;2288836;56;21010;-72
2022/02/09 06:07:53;;;;;;;13.43;4.80;;;3.30;70.50;;;;;;2289078;56;21008;-72
2022/02/09 06:10:27;;;;;;;13.40;4.97;;;3.30;70.60;;;;;;2288944;56;20964;-71
2022/02/09 06:13:08;;;;;;;19.20;5.95;;;3.30;70.80;;;;;;2288676;56;20968;-73
2022/02/09 06:19:37;;;;;;;20.88;6.55;;;3.30;70.80;;;;;;2288968;56;21477;-70
2022/02/09 06:22:04;;;;;;;22.15;6.32;;;3.30;70.80;;;;;;2523745;55;21017;-72
2022/02/09 06:24:30;;;;;;;17.98;6.95;;;3.30;70.50;;;;;;2289187;54;21044;-72
2022/02/09 06:26:57;;;;;;;21.00;7.75;;;3.30;70.60;;;;;;2323660;55;21520;-72
2022/02/09 06:29:25;;;;;;;16.73;6.68;;;3.30;70.60;;;;;;2289056;54;20946;-72
2022/02/09 06:31:51;;;;;;;16.73;6.80;;;3.30;70.70;;;;;;2266154;56;20944;-73
2022/02/09 06:34:19;;;;;;;14.50;6.00;;;3.30;70.70;;;;;;2288979;56;20997;-71
2022/02/09 06:40:14;;;;;;;15.27;5.85;;;3.30;70.70;;;;;;2288895;56;20992;-72
2022/02/09 06:42:41;;;;;;;14.48;6.03;;;3.30;70.60;;;;;;2288483;56;20948;-71
2022/02/09 06:45:25;;;;;;;12.32;4.85;;;3.20;70.50;;;;;;2289010;56;21044;-72
2022/02/09 06:47:51;;;;;;;12.13;5.18;;;3.20;70.60;;;;;;2289319;56;21033;-73
2022/02/09 06:50:55;;;;;;;13.30;4.80;;;3.20;70.50;;;;;;2391593;55;21037;-74
2022/02/09 06:53:31;;;;;;;12.63;4.57;;;3.20;70.60;;;;;;2288847;56;21406;-71
2022/02/09 06:56:02;;;;;;;8.98;3.62;;;3.20;70.60;;;;;;2391326;55;20995;-72
2022/02/09 07:01:29;;;;;;;10.02;4.40;;;3.20;70.50;;;;;;2290733;55;20965;-73
2022/02/09 07:03:57;;;;;;;8.80;3.85;;;3.20;70.60;;;;;;2289237;56;20968;-74
2022/02/09 07:06:23;;;;;;;9.25;3.65;;;3.20;70.60;;;;;;2492937;55;21544;-72
2022/02/09 07:08:49;;;;;;;7.68;3.50;;;3.20;70.60;;;;;;2289185;56;20936;-74
2022/02/09 07:11:15;;;;;;;7.75;3.55;;;3.20;70.70;;;;;;2386275;55;21457;-73
2022/02/09 07:13:42;;;;;;;6.22;2.65;;;3.20;70.80;;;;;;2288935;56;20916;-71
2022/02/09 07:16:09;;;;;;;6.60;2.83;;;3.20;70.90;;;;;;2288737;55;20977;-73
2022/02/09 07:18:37;;;;;;;5.78;2.83;;;3.20;71.10;;;;;;2399613;54;20968;-73
2022/02/09 07:21:09;;;;;;;6.15;2.53;;;3.20;71.20;;;;;;2289534;56;20955;-72
2022/02/09 07:23:42;;;;;;;6.50;3.10;;;3.20;71.20;;;;;;2438474;55;20937;-73
2022/02/09 07:26:19;;;;;;;6.95;3.08;;;3.20;71.20;;;;;;2495538;55;20960;-73
2022/02/09 07:28:45;;;;;;;8.85;3.40;;;3.20;71.30;;;;;;2289629;56;20956;-73
2022/02/09 07:31:11;;;;;;;9.45;3.22;;;3.20;71.30;;;;;;2414004;55;21068;-72
2022/02/09 07:33:40;;;;;;;10.73;3.85;;;3.30;71.50;;;;;;2289307;55;20953;-72
2022/02/09 07:36:06;;;;;;;9.93;4.60;;;3.30;71.50;;;;;;2289092;55;20973;-71
2022/02/09 07:38:32;;;;;;;10.68;4.43;;;3.30;71.60;;;;;;2285903;55;20984;-72
2022/02/09 07:41:01;;;;;;;14.65;5.28;;;3.30;71.70;;;;;;2411041;55;21077;-72
2022/02/09 07:44:01;;;;;;;11.75;5.80;;;3.30;71.90;;;;;;2288313;56;21009;-73
2022/02/09 07:46:38;;;;;;;10.68;5.28;;;3.40;72.10;;;;;;2287968;56;21016;-72
2022/02/09 07:49:10;;;;;;;13.50;5.80;;;3.40;72.10;;;;;;2288240;56;21040;-73
2022/02/09 07:51:42;;;;;;;10.55;5.20;;;3.40;72.20;;;;;;2289122;56;20968;-72
2022/02/09 07:54:09;;;;;;;12.20;5.22;;;3.50;72.40;;;;;;2289476;56;20928;-71
2022/02/09 07:56:47;;;;;;;10.35;4.82;;;3.50;72.50;;;;;;2292883;55;21016;-73
2022/02/09 07:59:15;;;;;;;13.13;5.28;;;3.60;72.60;;;;;;2359189;54;21020;-73
2022/02/09 08:01:41;;;;;;;10.90;5.10;;;3.60;72.80;;;;;;2289264;56;20937;-72
2022/02/09 08:04:08;;;;;;;9.77;4.53;;;3.60;72.90;;;;;;2288719;56;21441;-73
2022/02/09 08:06:34;;;;;;;12.88;4.62;;;3.70;73.10;;;;;;2287947;56;21011;-70
2022/02/09 08:09:06;;;;;;;6.72;4.10;;;3.70;73.20;;;;;;2289130;56;20944;-72
2022/02/09 08:11:49;;;;;;;6.80;3.22;;;3.80;73.40;;;;;;2290300;56;21013;-70
2022/02/09 08:24:15;;;;;;;17.50;6.95;;;4.10;74.40;;;;;;2336639;54;20988;-71
2022/02/09 08:27:18;;;;;;;13.13;5.70;;;4.10;74.60;;;;;;2289354;56;21001;-71
2022/02/09 08:32:50;;;;;;;12.40;5.32;;;4.30;75.20;;;;;;2288673;54;21026;-70
2022/02/09 08:35:16;;;;;;;8.38;4.45;;;4.50;75.60;;;;;;2309085;55;20965;-71
2022/02/09 08:37:44;;;;;;;10.07;4.95;;;4.60;75.80;;;;;;2288811;55;20988;-70
2022/02/09 08:40:13;;;;;;;9.18;4.62;;;4.70;76.00;;;;;;2288879;55;21413;-70
2022/02/09 08:42:42;;;;;;;8.80;5.05;;;4.80;76.10;;;;;;2289147;56;21953;-70
2022/02/09 08:45:08;;;;;;;10.00;5.00;;;4.80;76.00;;;;;;2289628;56;21908;-70
2022/02/09 08:47:49;;;;;;;10.27;5.12;;;5.00;76.10;;;;;;2443054;55;21721;-71
2022/02/09 08:50:15;;;;;;;9.38;4.80;;;5.00;76.10;;;;;;2289278;56;20957;-71
2022/02/09 08:52:42;;;;;;;7.07;3.83;;;5.10;76.10;;;;;;2295751;54;20966;-72
2022/02/09 08:55:08;;;;;;;8.77;4.30;;;5.20;76.20;;;;;;2322084;54;20952;-72
2022/02/09 08:57:35;;;;;;;9.70;4.40;;;5.30;76.30;;;;;;2289230;56;20945;-71
2022/02/09 09:00:12;;;;;;;8.93;4.90;;;5.40;76.40;;;;;;2389884;54;21009;-71
2022/02/09 09:02:43;;;;;;;9.85;5.10;;;5.50;76.50;;;;;;2303758;55;21537;-72
2022/02/09 09:05:16;;;;;;;8.95;5.03;;;5.60;76.60;;;;;;2424030;54;20989;-70
2022/02/09 09:07:47;;;;;;;11.95;5.45;;;5.70;76.70;;;;;;2470056;54;20952;-71
2022/02/09 09:10:25;;;;;;;11.05;5.72;;;5.80;76.80;;;;;;2370995;55;20980;-71
2022/02/09 09:41:25;;;;;;;8.43;4.28;;;8.30;85.60;;;;;;2290394;55;20986;-73
2022/02/09 09:59:51;;;;;;;6.70;3.87;;;11.80;86.40;;;;;;2289391;56;20957;-73
2022/02/09 10:03:10;;;;;;;6.82;3.65;;;12.10;84.60;;;;;;2288892;56;21735;-73
2022/02/09 10:33:13;;;;;;;8.75;4.68;;;14.20;82.10;;;;;;2299032;55;21771;-73
2022/02/09 10:35:47;;;;;;;9.70;4.60;;;14.50;82.20;;;;;;2289200;56;20953;-73
2022/02/09 10:38:49;;;;;;;9.90;4.68;;;14.80;82.60;;;;;;2289465;56;20988;-73
2022/02/09 10:41:29;;;;;;;8.40;4.60;;;15.20;78.80;;;;;;2289349;56;20973;-73
2022/02/09 10:44:03;;;;;;;8.93;4.30;;;15.40;80.30;;;;;;2289418;56;20965;-73
2022/02/09 10:46:30;;;;;;;8.23;4.37;;;15.70;78.90;;;;;;2288818;56;20929;-73
2022/02/09 10:48:58;;;;;;;7.75;4.68;;;15.90;79.60;;;;;;2289572;56;21429;-73
2022/02/09 10:51:37;;;;;;;10.00;4.95;;;16.10;79.30;;;;;;2387387;55;21005;-73
2022/02/09 10:54:14;;;;;;;9.05;4.95;;;16.20;77.20;;;;;;2289254;56;20936;-73
2022/02/09 10:56:42;;;;;;;8.23;4.55;;;16.30;75.60;;;;;;2332699;55;21002;-73
2022/02/09 10:59:10;;;;;;;8.23;4.60;;;16.40;76.40;;;;;;2288578;55;21062;-73
2022/02/09 11:01:38;;;;;;;10.48;5.22;;;16.50;76.10;;;;;;2267553;55;21364;-73
2022/02/09 11:04:05;;;;;;;9.13;5.00;;;16.50;76.30;;;;;;2288892;56;20981;-73
2022/02/09 11:06:32;;;;;;;9.13;4.60;;;16.60;76.40;;;;;;2495549;55;21008;-74
2022/02/09 11:09:00;;;;;;;10.15;5.60;;;16.70;76.50;;;;;;2289651;56;20948;-73
2022/02/09 11:11:27;;;;;;;9.23;4.80;;;16.80;77.30;;;;;;2316588;54;20967;-73
2022/02/09 11:13:56;;;;;;;7.45;4.18;;;16.90;77.00;;;;;;2289654;56;21762;-73
2022/02/09 11:16:23;;;;;;;6.78;3.80;;;16.90;77.00;;;;;;2289306;56;21417;-73
2022/02/09 11:18:50;;;;;;;6.30;3.67;;;17.00;76.70;;;;;;2423944;55;21012;-74
2022/02/09 11:21:25;;;;;;;7.47;4.22;;;17.10;76.80;;;;;;2305249;54;21009;-73
2022/02/09 11:23:56;;;;;;;;;;;17.30;75.90;;;;;;2296327;56;20983;-73
2022/02/09 11:26:50;;;;;;;5.82;2.90;;;17.40;73.00;;;;;;2280869;55;20114;-73
2022/02/09 11:29:46;;;;;;;6.32;2.72;;;17.60;73.90;;;;;;2327685;55;20929;-73
2022/02/09 11:32:21;;;;;;;5.57;3.30;;;17.70;72.70;;;;;;2290427;55;21050;-73
2022/02/09 11:36:17;;;;;;;6.55;3.42;;;17.80;74.70;;;;;;2290957;55;20946;-73
2022/02/09 11:38:49;;;;;;;5.03;3.00;;;17.90;71.50;;;;;;2306604;55;21469;-74
2022/02/09 11:41:19;;;;;;;5.90;2.67;;;18.00;74.20;;;;;;2333794;55;20949;-75
2022/02/09 11:43:52;;;;;;;6.70;3.10;;;18.00;72.90;;;;;;2290914;55;21523;-71
2022/02/09 11:46:42;;;;;;;4.80;2.92;;;18.00;72.90;;;;;;2290875;55;20976;-74
2022/02/09 11:59:51;;;;;;;4.55;2.62;;;17.90;72.20;;;;;;2289439;56;21417;-73
2022/02/09 12:09:01;;;;;;;6.70;3.17;;;17.60;71.10;;;;;;2267562;55;20988;-73
2022/02/09 12:12:19;;;;;;;5.53;3.03;;;17.50;71.10;;;;;;2289505;56;21048;-73
2022/02/09 12:15:32;;;;;;;6.82;3.30;;;17.50;70.10;;;;;;2288642;56;20961;-73
2022/02/09 12:18:25;;;;;;;6.70;3.45;;;17.50;71.10;;;;;;2289064;56;20952;-74
2022/02/09 12:21:16;;;;;;;;;;;17.50;72.90;;;;;;2270266;56;20957;-73
2022/02/09 12:23:45;;;;;;;6.78;3.12;;;17.60;71.20;;;;;;2408762;55;20175;-73
2022/02/09 12:26:21;;;;;;;6.10;3.50;;;17.70;74.30;;;;;;2287703;55;20928;-73
2022/02/09 12:28:52;;;;;;;6.45;3.80;;;17.70;74.20;;;;;;2289171;56;21807;-73
2022/02/09 12:31:23;;;;;;;8.73;3.60;;;17.80;73.50;;;;;;2266856;55;21021;-72
2022/02/09 12:33:51;;;;;;;5.72;3.20;;;17.80;73.70;;;;;;2266620;56;20989;-73
2022/02/09 12:36:20;;;;;;;7.15;3.47;;;17.90;73.90;;;;;;2289510;56;21068;-73
2022/02/09 12:38:46;;;;;;;5.87;3.00;;;18.00;74.00;;;;;;2289212;56;20952;-73
2022/02/09 12:41:21;;;;;;;6.57;3.65;;;18.00;74.20;;;;;;2292391;55;21040;-73
2022/02/09 12:44:23;;;;;;;6.68;3.00;;;18.10;72.70;;;;;;2285226;55;20993;-73
2022/02/09 12:46:49;;;;;;;6.32;3.10;;;18.20;74.20;;;;;;2289436;56;21541;-74
2022/02/09 12:49:17;;;;;;;5.90;3.05;;;18.30;74.70;;;;;;2288908;56;20961;-72
2022/02/09 12:51:46;;;;;;;6.53;2.78;;;18.50;74.80;;;;;;2345635;55;21029;-74
2022/02/09 12:54:15;;;;;;;5.57;2.87;;;18.60;74.60;;;;;;2349081;55;20964;-73
2022/02/09 12:56:44;;;;;;;6.10;2.90;;;18.70;74.00;;;;;;2288806;56;21024;-73
2022/02/09 12:59:15;;;;;;;4.95;2.60;;;18.80;73.50;;;;;;2289146;56;20944;-74
2022/02/09 13:01:43;;;;;;;5.82;2.50;;;19.00;73.50;;;;;;2288546;56;21016;-73
2022/02/09 13:04:18;;;;;;;5.43;2.62;;;19.10;74.30;;;;;;2290446;55;21025;-74
2022/02/09 13:06:45;;;;;;;5.30;2.42;;;19.20;74.10;;;;;;2286125;55;21040;-74
2022/02/09 13:09:15;;;;;;;4.40;2.20;;;19.30;73.60;;;;;;2294690;55;20925;-74
2022/02/09 13:11:43;;;;;;;4.12;2.20;;;19.40;72.90;;;;;;2321738;55;20953;-73
2022/02/09 13:14:14;;;;;;;6.70;3.53;;;19.60;73.40;;;;;;2314432;55;21742;-72
2022/02/09 13:17:06;;;;;;;11.00;6.20;;;19.70;73.60;;;;;;2279430;55;20965;-72
2022/02/09 13:25:07;;;;;;;12.15;5.90;;;20.00;70.00;;;;;;2235250;56;3399965;-74
2022/02/09 14:03:07;;;;;;;3.33;1.48;;;19.90;69.60;;;;;;2299788;55;21034;-74
2022/02/09 14:11:13;;;;;;;5.95;1.80;;;19.80;69.80;;;;;;2289125;56;21056;-73
2022/02/09 14:18:23;;;;;;;6.90;1.80;;;19.40;68.30;;;;;;2288777;56;21783;-74
2022/02/09 14:52:21;;;;;;;5.78;2.00;;;18.20;71.00;;;;;;2292055;56;20925;-70
2022/02/09 14:55:00;;;;;;;3.70;1.73;;;18.20;71.10;;;;;;2289030;56;21042;-76
2022/02/09 14:57:35;;;;;;;3.87;1.80;;;18.20;71.30;;;;;;2303809;55;21008;-73
2022/02/09 15:00:11;;;;;;;4.95;2.12;;;18.10;70.90;;;;;;2288316;56;20928;-72
2022/02/09 15:02:52;;;;;;;5.93;2.40;;;18.10;71.20;;;;;;2488441;54;21869;-74
2022/02/09 15:08:32;;;;;;;8.77;4.68;;;18.00;69.70;;;;;;2288570;56;20969;-73
2022/02/09 15:11:08;;;;;;;9.00;4.82;;;17.90;69.60;;;;;;2454121;55;20928;-71
2022/02/09 15:13:59;;;;;;;8.88;4.85;;;17.80;69.90;;;;;;2318134;55;21065;-75
2022/02/09 15:16:35;;;;;;;8.32;3.97;;;17.80;69.80;;;;;;2520515;55;21341;-73
2022/02/09 15:22:57;;;;;;;4.60;2.40;;;17.60;70.20;;;;;;2291549;56;21852;-72
2022/02/09 15:25:31;;;;;;;5.30;2.40;;;17.50;70.20;;;;;;2288892;56;21009;-73
2022/02/09 15:28:00;;;;;;;4.65;2.45;;;17.40;70.00;;;;;;2290748;56;21024;-70
2022/02/09 15:30:30;;;;;;;4.60;2.28;;;17.40;69.80;;;;;;2267414;55;21040;-70
2022/02/09 15:33:01;;;;;;;4.80;2.22;;;17.30;69.70;;;;;;2289082;56;21049;-71
2022/02/09 15:35:38;;;;;;;5.70;2.20;;;17.20;69.60;;;;;;2266736;56;20933;-73
2022/02/09 15:38:11;;;;;;;5.45;2.28;;;17.10;69.60;;;;;;2288238;55;21017;-73
2022/02/09 15:40:51;;;;;;;5.15;2.33;;;17.00;69.10;;;;;;2289183;56;20971;-72
2022/02/09 16:05:37;;;;;;;2.92;1.20;;;16.40;69.30;;;;;;2293350;55;20966;-70
2022/02/09 16:11:19;;;;;;;3.33;1.40;;;16.10;69.30;;;;;;2354535;54;20987;-71
2022/02/09 16:16:55;;;;;;;3.25;1.50;;;15.80;68.70;;;;;;2285930;54;20999;-70
2022/02/09 16:24:54;;;;;;;3.85;1.50;;;15.50;68.30;;;;;;2366233;55;21040;-70
2022/02/09 16:44:21;;;;;;;4.80;2.33;;;14.40;66.80;;;;;;2349109;55;21056;-71
2022/02/09 16:46:57;;;;;;;4.22;2.00;;;14.20;66.60;;;;;;2381657;55;21827;-72
2022/02/09 16:49:29;;;;;;;4.97;2.20;;;14.00;66.60;;;;;;2290794;55;20965;-70
2022/02/09 16:52:03;;;;;;;5.07;2.45;;;13.80;66.40;;;;;;2286071;55;21016;-69
2022/02/09 17:20:15;;;;;;;5.75;2.60;;;12.40;67.00;;;;;;2288864;56;20984;-69
2022/02/09 17:22:41;;;;;;;4.15;2.15;;;12.30;67.10;;;;;;2288422;56;20972;-72
2022/02/09 17:25:08;;;;;;;6.65;2.22;;;12.20;67.20;;;;;;2292508;55;21390;-71
2022/02/09 17:27:34;;;;;;;4.68;2.05;;;12.00;67.10;;;;;;2284835;55;21387;-70
2022/02/09 17:30:36;;;;;;;4.40;2.10;;;12.00;67.30;;;;;;2288032;56;20965;-73
2022/02/09 17:33:26;;;;;;;;;;;;;;;;;;;;;
2022/02/09 17:36:03;;;;;;;4.90;2.15;;;11.70;67.30;;;;;;2266846;56;20961;-73
2022/02/09 17:38:43;;;;;;;5.20;2.12;;;11.70;67.40;;;;;;2289425;55;21008;-74
2022/02/09 17:55:58;;;;;;;3.90;1.73;;;11.10;67.90;;;;;;2267282;56;21349;-74
2022/02/09 17:58:32;;;;;;;3.50;1.60;;;11.10;68.00;;;;;;2292811;56;21069;-70
2022/02/09 18:00:59;;;;;;;3.92;1.65;;;11.00;68.00;;;;;;2523351;54;20972;-69
2022/02/09 18:03:25;;;;;;;4.72;1.77;;;10.90;68.00;;;;;;2288895;56;21484;-75
2022/02/09 18:05:56;;;;;;;4.30;1.92;;;10.80;67.80;;;;;;2289236;55;20949;-71
2022/02/09 18:08:36;;;;;;;4.80;1.80;;;10.80;67.70;;;;;;2288677;55;21012;-70
2022/02/09 18:15:28;;;;;;;3.53;1.50;;;10.60;67.60;;;;;;2289516;56;20985;-71
2022/02/09 18:47:47;;;;;;;3.20;1.37;;;9.80;69.40;;;;;;2288278;55;20961;-72
2022/02/09 19:03:57;;;;;;;2.92;1.10;;;9.50;70.10;;;;;;2288474;54;20950;-72
2022/02/09 19:20:09;;;;;;;2.70;1.23;;;9.30;70.20;;;;;;2288576;56;20961;-74
2022/02/09 19:41:42;;;;;;;3.35;1.42;;;9.40;72.90;;;;;;2285814;55;20953;-70
2022/02/09 19:44:56;;;;;;;3.70;1.58;;;9.40;73.30;;;;;;2288681;55;20948;-69
2022/02/09 19:50:43;;;;;;;4.22;1.35;;;9.60;74.10;;;;;;2289062;56;20961;-72
2022/02/09 19:53:28;;;;;;;2.58;1.27;;;9.70;74.10;;;;;;2299733;55;21064;-72
2022/02/09 19:56:04;;;;;;;4.07;1.80;;;9.80;74.20;;;;;;2433539;54;20992;-69
2022/02/09 19:58:40;;;;;;;2.50;1.15;;;9.90;74.30;;;;;;2288415;54;21828;-70
2022/02/09 20:01:09;;;;;;;3.67;1.37;;;10.10;73.30;;;;;;2371032;54;21061;-72
2022/02/09 20:03:35;;;;;;;4.95;1.70;;;10.10;73.20;;;;;;2503295;54;21028;-70
2022/02/09 20:06:01;;;;;;;5.35;1.55;;;10.20;73.10;;;;;;2289894;56;21012;-72
2022/02/09 20:08:28;;;;;;;2.53;1.00;;;10.30;73.00;;;;;;2288559;55;21053;-71
2022/02/09 20:10:55;;;;;;;3.42;1.40;;;10.40;73.00;;;;;;2481986;55;21249;-74
2022/02/09 20:13:22;;;;;;;4.68;1.27;;;10.40;72.70;;;;;;2289150;56;21004;-72
2022/02/09 20:15:49;;;;;;;5.00;1.33;;;10.50;72.60;;;;;;2309896;55;20941;-70
2022/02/09 20:18:18;;;;;;;4.95;1.37;;;10.50;72.50;;;;;;2289599;56;20989;-74
2022/02/09 20:20:44;;;;;;;2.75;1.17;;;10.60;72.50;;;;;;2322398;54;21031;-70
2022/02/09 20:23:12;;;;;;;4.15;1.80;;;10.60;72.50;;;;;;2289266;56;20929;-71
2022/02/09 20:25:38;;;;;;;4.40;1.80;;;10.70;72.30;;;;;;2393581;54;21076;-72
2022/02/09 20:28:06;;;;;;;4.65;1.62;;;10.70;72.00;;;;;;2481330;54;21037;-71
2022/02/09 20:30:39;;;;;;;4.40;1.90;;;10.80;72.10;;;;;;2289469;55;21008;-71
2022/02/09 20:33:12;;;;;;;3.50;1.52;;;10.80;72.10;;;;;;2333692;55;21817;-72
2022/02/09 20:35:39;;;;;;;3.65;1.70;;;10.80;71.90;;;;;;2280260;56;21620;-75
2022/02/09 20:38:11;;;;;;;3.67;1.33;;;10.90;72.00;;;;;;2280180;56;21527;-72
2022/02/09 20:40:50;;;;;;;3.70;1.40;;;10.90;72.00;;;;;;2370506;54;21429;-72
2022/02/09 20:43:19;;;;;;;5.97;1.70;;;10.90;72.00;;;;;;2280209;56;21000;-74
2022/02/09 20:45:51;;;;;;;3.80;1.40;;;11.00;72.10;;;;;;2280143;56;20937;-74
2022/02/09 20:48:22;;;;;;;3.72;1.75;;;11.10;72.00;;;;;;2280620;56;21028;-74
2022/02/09 20:50:49;;;;;;;6.78;1.85;;;11.10;72.10;;;;;;2279376;55;21468;-69
2022/02/09 20:53:15;;;;;;;7.57;1.80;;;11.10;72.00;;;;;;2280311;56;20951;-72
2022/02/09 20:55:46;;;;;;;3.03;1.40;;;11.20;71.90;;;;;;2280682;56;21001;-72
2022/02/09 20:58:12;;;;;;;4.97;2.30;;;11.20;71.50;;;;;;2280354;56;20945;-71
2022/02/09 21:00:57;;;;;;;5.25;2.05;;;11.20;71.70;;;;;;2289124;55;21377;-70
2022/02/09 21:07:52;;;;;;;2.97;1.23;;;11.30;71.40;;;;;;2283336;55;21111;-71
2022/02/09 21:23:31;;;;;;;3.47;1.17;;;11.50;71.50;;;;;;2423019;55;21004;-73
2022/02/09 21:26:31;;;;;;;3.90;1.25;;;11.50;71.20;;;;;;2279768;56;21276;-72
2022/02/09 21:41:30;;;;;;;2.90;1.20;;;11.50;70.30;;;;;;2282544;54;20978;-69
2022/02/09 21:52:33;;;;;;;3.50;1.30;;;11.00;67.80;;;;;;2279775;56;21491;-74
2022/02/09 21:55:26;;;;;;;4.97;1.62;;;10.80;67.50;;;;;;2362511;54;21029;-72
2022/02/09 21:58:07;;;;;;;4.53;1.70;;;10.70;67.40;;;;;;2454272;55;20976;-74
2022/02/09 22:16:47;;;;;;;4.70;2.00;;;9.80;68.10;;;;;;2279491;55;21087;-72
2022/02/09 22:20:14;;;;;;;3.70;1.50;;;9.70;68.10;;;;;;2279996;56;21587;-72
2022/02/09 22:28:44;;;;;;;3.15;1.42;;;9.50;68.00;;;;;;2279277;56;21340;-74
2022/02/09 22:45:44;;;;;;;4.85;1.33;;;8.80;68.00;;;;;;2276648;55;20947;-69
2022/02/09 22:48:38;;;;;;;3.30;1.30;;;8.70;68.10;;;;;;2274435;56;21945;-70
2022/02/09 22:56:34;;;;;;;3.80;1.35;;;8.40;68.40;;;;;;2280087;56;21483;-73
2022/02/09 22:59:04;;;;;;;3.90;1.60;;;8.30;68.40;;;;;;2282891;55;21073;-73
2022/02/09 23:01:44;;;;;;;3.78;1.35;;;8.30;68.50;;;;;;2276650;54;21480;-69
2022/02/09 23:09:55;;;;;;;3.03;1.02;;;8.10;68.50;;;;;;2483431;54;20996;-72
2022/02/09 23:12:31;;;;;;;3.33;1.27;;;8.00;68.40;;;;;;2513112;54;20957;-69
2022/02/09 23:15:18;;;;;;;3.35;1.30;;;7.90;68.40;;;;;;2280067;56;21054;-69
2022/02/09 23:20:05;;;;;;;3.50;1.30;;;7.80;68.30;;;;;;2434189;55;21281;-72
